Time;durP1;ratioP1;P1;durP2;ratioP2;P2;SDS_P1;SDS_P2;PMS_P1;PMS_P2;Temp;Humidity;BMP_temperature;BMP_pressure;BME280_temperature;BME280_humidity;BME280_pressure;Samples;Min_cycle;Max_cycle;Signal;HPM_P1;HPM_P2
2022/06/04 00:00:11;;;;;;;4.28;1.65;;;;;;;15.96;62.30;101777.19;4968236;28;20022;-71
2022/06/04 00:02:40;;;;;;;5.10;1.93;;;;;;;15.95;62.04;101779.78;4963281;28;20089;-71
2022/06/04 00:05:08;;;;;;;2.58;1.30;;;;;;;15.90;62.42;101777.03;4966624;28;20035;-71
2022/06/04 00:07:34;;;;;;;3.28;1.75;;;;;;;15.92;61.69;101785.78;4969547;28;20062;-71
2022/06/04 00:15:32;;;;;;;3.42;2.08;;;;;;;15.82;62.39;101768.13;4970547;28;20492;-71
2022/06/04 00:17:59;;;;;;;2.10;1.83;;;;;;;15.77;62.32;101768.03;4969869;28;20130;-71
2022/06/04 00:20:25;;;;;;;3.38;1.95;;;;;;;15.74;62.81;101770.53;4965269;28;20058;-72
2022/06/04 00:23:00;;;;;;;2.50;1.70;;;;;;;15.72;62.28;101772.25;4970286;28;20015;-71
2022/06/04 00:25:25;;;;;;;3.90;1.88;;;;;;;15.64;62.65;101779.00;4969890;28;20035;-71
2022/06/04 00:27:51;;;;;;;3.30;1.75;;;;;;;15.63;62.37;101778.13;4969616;28;20022;-71
2022/06/04 00:30:16;;;;;;;3.42;2.10;;;;;;;15.61;62.65;101780.66;4969072;28;20033;-71
2022/06/04 00:32:42;;;;;;;2.20;1.60;;;;;;;15.60;62.31;101783.25;4970111;28;20502;-71
2022/06/04 00:35:08;;;;;;;4.10;1.60;;;;;;;15.57;62.75;101786.69;4969843;28;20034;-71
2022/06/04 00:37:35;;;;;;;1.92;1.40;;;;;;;15.57;62.28;101784.06;4969451;28;20034;-71
2022/06/04 00:40:02;;;;;;;4.22;2.10;;;;;;;15.53;62.92;101782.22;4969298;28;20018;-71
2022/06/04 00:42:27;;;;;;;2.83;1.73;;;;;;;15.51;61.99;101786.50;4966245;28;20034;-71
2022/06/04 00:45:21;;;;;;;3.95;1.90;;;;;;;15.47;62.18;101771.63;4969733;28;20410;-71
2022/06/04 00:47:49;;;;;;;1.98;1.35;;;;;;;15.43;61.84;101768.03;4967625;28;20057;-71
2022/06/04 00:50:18;;;;;;;1.83;1.35;;;;;;;15.36;61.38;101764.34;4969257;28;20396;-71
2022/06/04 00:52:46;;;;;;;2.20;1.92;;;;;;;15.32;62.33;101777.31;4967435;28;20166;-71
2022/06/04 00:55:12;;;;;;;3.05;1.65;;;;;;;15.27;61.29;101779.78;4969399;28;20109;-71
2022/06/04 00:57:50;;;;;;;4.03;2.08;;;;;;;15.25;61.98;101791.91;4968615;28;20030;-71
2022/06/04 01:00:20;;;;;;;3.80;1.60;;;;;;;15.25;62.79;101799.75;4968808;28;20026;-71
2022/06/04 01:02:58;;;;;;;3.00;1.67;;;;;;;15.20;62.09;101804.81;4966907;28;20022;-71
2022/06/04 01:05:48;;;;;;;4.13;1.67;;;;;;;15.09;62.09;101814.97;4967426;28;20208;-71
2022/06/04 01:08:35;;;;;;;2.40;1.45;;;;;;;15.06;62.38;101820.09;4968156;28;20053;-71
2022/06/04 01:11:09;;;;;;;3.17;1.90;;;;;;;15.07;63.65;101837.53;4968677;28;20031;-71
2022/06/04 01:13:48;;;;;;;2.25;1.38;;;;;;;15.02;63.06;101841.72;4968509;28;20094;-71
2022/06/04 01:16:22;;;;;;;2.78;1.88;;;;;;;15.03;63.40;101847.84;4968026;28;20372;-71
2022/06/04 01:19:46;;;;;;;3.85;1.90;;;;;;;15.00;63.21;101828.63;4968573;28;20025;-71
2022/06/04 01:22:38;;;;;;;3.35;2.10;;;;;;;14.99;63.11;101828.59;4958052;28;20046;-71
2022/06/04 01:25:41;;;;;;;3.38;1.77;;;;;;;14.96;63.30;101831.13;4966617;28;20395;-71
2022/06/04 01:28:09;;;;;;;1.90;1.63;;;;;;;14.95;63.37;101829.34;4968235;28;20030;-71
2022/06/04 01:30:47;;;;;;;5.68;1.75;;;;;;;14.92;63.09;101839.69;4968302;28;20082;-71
2022/06/04 01:33:25;;;;;;;3.25;2.03;;;;;;;14.86;62.99;101829.94;4968233;28;20026;-71
2022/06/04 01:35:56;;;;;;;2.63;1.95;;;;;;;14.83;63.45;101833.34;4965198;28;20389;-71
2022/06/04 01:38:31;;;;;;;3.20;2.22;;;;;;;14.79;63.70;101834.06;4968161;28;20069;-71
2022/06/04 01:41:19;;;;;;;3.95;2.60;;;;;;;14.75;64.50;101840.91;4966889;28;20027;-71
2022/06/04 01:43:52;;;;;;;2.85;1.90;;;;;;;14.65;64.19;101839.75;4967795;28;20018;-71
2022/06/04 01:46:38;;;;;;;2.90;2.00;;;;;;;14.66;64.35;101848.44;4968111;28;20042;-71
2022/06/04 01:49:17;;;;;;;4.15;1.90;;;;;;;14.62;64.11;101847.50;4968222;28;20022;-71
2022/06/04 01:51:44;;;;;;;2.75;1.70;;;;;;;14.60;64.34;101846.56;4968212;28;20019;-71
2022/06/04 01:54:39;;;;;;;5.55;2.25;;;;;;;14.56;64.73;101862.94;4967884;28;20029;-71
2022/06/04 01:57:09;;;;;;;2.90;1.50;;;;;;;14.51;65.41;101859.28;4967431;28;20035;-71
2022/06/04 01:59:39;;;;;;;4.15;2.10;;;;;;;14.50;65.16;101862.72;4967223;28;20525;-71
2022/06/04 02:02:10;;;;;;;4.97;1.92;;;;;;;14.49;65.10;101871.41;4965891;28;20081;-71
2022/06/04 02:04:40;;;;;;;2.28;2.08;;;;;;;14.49;65.13;101863.56;4967659;28;20022;-71
2022/06/04 02:09:59;;;;;;;2.47;1.90;;;;;;;14.41;65.17;101868.53;4968121;28;20030;-71
2022/06/04 02:12:25;;;;;;;2.15;1.95;;;;;;;14.38;65.73;101861.50;4967789;28;20027;-70
2022/06/04 02:14:50;;;;;;;3.03;2.03;;;;;;;14.36;65.11;101863.19;4967640;28;20030;-71
2022/06/04 02:17:23;;;;;;;4.57;2.45;;;;;;;14.33;65.91;101864.78;4968148;28;20026;-71
2022/06/04 02:19:48;;;;;;;2.53;2.17;;;;;;;14.30;66.55;101863.00;4967124;28;20445;-71
2022/06/04 02:22:14;;;;;;;2.63;2.10;;;;;;;14.29;66.34;101872.53;4968106;28;20045;-71
2022/06/04 02:24:41;;;;;;;3.03;2.10;;;;;;;14.25;66.78;101864.53;4968043;28;20109;-71
2022/06/04 02:27:07;;;;;;;2.60;2.40;;;;;;;14.24;67.21;101860.16;4967646;28;20031;-71
2022/06/04 02:29:36;;;;;;;5.28;2.22;;;;;;;14.23;67.05;101854.06;4967536;28;20438;-71
2022/06/04 02:32:31;;;;;;;3.00;2.33;;;;;;;14.23;67.05;101853.19;4967345;28;20606;-71
2022/06/04 02:35:08;;;;;;;5.00;2.55;;;;;;;14.16;68.02;101857.28;4971355;28;20027;-71
2022/06/04 02:37:48;;;;;;;3.72;2.40;;;;;;;14.11;67.94;101859.75;4967135;28;20146;-71
2022/06/04 02:40:26;;;;;;;2.20;2.00;;;;;;;14.10;68.41;101858.00;4967379;28;20034;-70
2022/06/04 02:43:02;;;;;;;4.80;2.70;;;;;;;14.06;68.00;101856.13;4966972;28;20018;-70
2022/06/04 02:45:34;;;;;;;3.05;2.33;;;;;;;14.01;68.51;101848.13;4966869;28;20402;-71
2022/06/04 02:48:12;;;;;;;5.75;2.90;;;;;;;13.98;68.50;101839.31;4967672;28;20300;-71
2022/06/04 02:50:43;;;;;;;4.35;2.60;;;;;;;13.92;68.62;101833.06;4967236;28;20023;-71
2022/06/04 02:53:10;;;;;;;3.65;2.53;;;;;;;13.89;68.60;101824.25;4968767;28;20096;-71
2022/06/04 02:55:47;;;;;;;2.53;2.33;;;;;;;13.88;68.74;101812.97;4971330;28;20057;-71
2022/06/04 02:58:16;;;;;;;4.22;2.30;;;;;;;13.85;68.98;101804.16;4971006;28;20023;-71
2022/06/04 03:00:42;;;;;;;3.72;2.20;;;;;;;13.82;69.11;101797.13;4970884;28;20033;-71
2022/06/04 03:03:14;;;;;;;3.35;2.72;;;;;;;13.76;69.66;101791.72;4969079;28;20030;-70
2022/06/04 03:05:53;;;;;;;4.97;2.50;;;;;;;13.75;69.95;101797.75;4970572;28;20030;-70
2022/06/04 03:08:19;;;;;;;4.63;2.70;;;;;;;13.74;70.28;101806.41;4971064;28;20038;-70
2022/06/04 03:10:44;;;;;;;6.97;3.00;;;;;;;13.71;70.89;101807.16;4971116;28;20038;-70
2022/06/04 03:13:10;;;;;;;3.92;2.75;;;;;;;13.66;71.18;101800.91;4970654;28;20107;-71
2022/06/04 03:15:35;;;;;;;6.15;3.05;;;;;;;13.62;71.48;101802.53;4970586;28;20056;-70
2022/06/04 03:18:00;;;;;;;6.45;3.00;;;;;;;13.62;71.01;101797.31;4970285;28;20030;-71
2022/06/04 03:20:27;;;;;;;4.55;2.88;;;;;;;13.64;71.22;101800.88;4968908;28;20050;-70
2022/06/04 03:22:53;;;;;;;4.70;3.20;;;;;;;13.63;71.71;101803.44;4969781;28;20031;-70
2022/06/04 03:25:19;;;;;;;4.22;3.45;;;;;;;13.60;71.54;101793.78;4970832;28;20573;-70
2022/06/04 03:27:45;;;;;;;4.53;3.70;;;;;;;13.57;72.82;101793.69;4970592;28;20031;-70
2022/06/04 03:30:12;;;;;;;4.00;3.40;;;;;;;13.57;72.16;101793.69;4969279;28;20026;-70
2022/06/04 03:32:38;;;;;;;4.70;3.22;;;;;;;13.58;72.63;101795.47;4968651;28;20031;-71
2022/06/04 03:35:04;;;;;;;7.07;3.42;;;;;;;13.57;72.09;101793.69;4970871;28;20030;-70
2022/06/04 03:37:29;;;;;;;5.20;3.83;;;;;;;13.55;72.48;101800.53;4970013;28;20037;-70
2022/06/04 03:39:54;;;;;;;4.10;3.70;;;;;;;13.50;73.36;101802.06;4970341;28;20366;-72
2022/06/04 03:42:20;;;;;;;6.40;3.65;;;;;;;13.50;73.51;101802.06;4970074;28;20105;-71
2022/06/04 03:44:47;;;;;;;6.00;3.58;;;;;;;13.49;73.52;101801.19;4970692;28;20414;-70
2022/06/04 03:47:18;;;;;;;6.05;4.28;;;;;;;13.45;74.11;101808.00;4970179;28;20554;-70
2022/06/04 03:49:45;;;;;;;4.72;4.03;;;;;;;13.43;73.79;101807.06;4969163;28;20031;-71
2022/06/04 03:52:11;;;;;;;6.25;4.15;;;;;;;13.42;74.00;101810.50;4971274;28;20065;-70
2022/06/04 03:54:52;;;;;;;4.85;3.75;;;;;;;13.43;74.45;101812.28;4971100;28;20035;-71
2022/06/04 03:57:38;;;;;;;5.38;4.10;;;;;;;13.44;74.61;101808.84;4953563;28;20205;-70
2022/06/04 04:00:06;;;;;;;6.85;4.47;;;;;;;13.39;75.01;101817.31;4970861;28;20356;-70
2022/06/04 04:02:32;;;;;;;5.03;4.28;;;;;;;13.35;75.48;101816.31;4958436;28;20023;-70
2022/06/04 04:04:57;;;;;;;4.75;4.00;;;;;;;13.36;75.28;101815.50;4968634;28;20023;-70
2022/06/04 04:07:23;;;;;;;8.02;4.25;;;;;;;13.33;75.17;101828.38;4971186;28;20873;-70
2022/06/04 04:09:48;;;;;;;8.05;4.90;;;;;;;13.29;75.76;101831.72;4970509;28;20027;-70
2022/06/04 04:12:13;;;;;;;5.90;4.63;;;;;;;13.27;75.63;101830.78;4985382;28;20126;-70
2022/06/04 04:14:39;;;;;;;4.72;4.13;;;;;;;13.25;75.97;101832.44;4970244;28;20495;-71
2022/06/04 04:17:04;;;;;;;5.30;4.50;;;;;;;13.23;76.67;101834.09;4970585;28;20479;-70
2022/06/04 04:19:30;;;;;;;9.35;4.88;;;;;;;13.21;77.22;101832.31;4970840;28;20089;-71
2022/06/04 04:21:55;;;;;;;5.43;4.30;;;;;;;13.23;76.77;101836.69;4970526;28;20085;-71
2022/06/04 04:24:21;;;;;;;6.60;4.90;;;;;;;13.24;76.96;101835.88;4969848;28;20025;-70
2022/06/04 04:26:47;;;;;;;6.40;4.20;;;;;;;13.25;77.93;101824.63;4970195;28;20082;-70
2022/06/04 04:29:12;;;;;;;5.10;4.60;;;;;;;13.25;77.50;101828.13;4970640;28;20065;-70
2022/06/04 04:31:38;;;;;;;7.35;4.82;;;;;;;13.21;78.32;101832.31;4970210;28;20038;-70
2022/06/04 04:34:04;;;;;;;6.85;4.93;;;;;;;13.22;77.53;101833.22;4969738;28;20081;-70
2022/06/04 04:36:30;;;;;;;7.28;4.75;;;;;;;13.25;78.14;101835.94;4970153;28;20035;-70
2022/06/04 04:38:58;;;;;;;7.13;5.20;;;;;;;13.26;78.66;101839.44;4970757;28;20565;-70
2022/06/04 04:41:24;;;;;;;6.88;4.45;;;;;;;13.25;78.54;101848.03;4969957;28;20043;-70
2022/06/04 04:43:50;;;;;;;6.68;4.82;;;;;;;13.20;79.53;101851.34;4969955;28;20388;-70
2022/06/04 04:46:16;;;;;;;5.38;4.88;;;;;;;13.24;79.30;101864.50;4970201;28;20106;-70
2022/06/04 04:48:44;;;;;;;5.03;4.53;;;;;;;13.24;78.91;101870.56;4969739;28;20463;-70
2022/06/04 04:51:16;;;;;;;5.70;4.70;;;;;;;13.27;80.15;101867.22;4970117;28;20027;-70
2022/06/04 04:53:43;;;;;;;6.43;4.50;;;;;;;13.32;79.36;101870.88;4969487;28;20101;-70
2022/06/04 04:56:08;;;;;;;6.10;5.57;;;;;;;13.32;78.68;101878.69;4969743;28;20161;-70
2022/06/04 04:58:34;;;;;;;7.65;5.45;;;;;;;13.32;79.47;101881.28;4969969;28;20535;-70
2022/06/04 05:00:59;;;;;;;8.80;5.40;;;;;;;13.28;80.30;101872.47;4968856;28;20027;-71
2022/06/04 05:03:24;;;;;;;8.65;5.72;;;;;;;13.30;79.15;101888.13;4956485;28;20460;-70
2022/06/04 05:06:01;;;;;;;8.00;5.70;;;;;;;13.28;79.70;101879.38;4970001;28;20071;-70
2022/06/04 05:08:27;;;;;;;8.20;5.82;;;;;;;13.28;79.86;101876.78;4969658;28;20034;-70
2022/06/04 05:10:52;;;;;;;7.00;5.10;;;;;;;13.30;80.34;101864.72;4969480;28;20037;-70
2022/06/04 05:13:17;;;;;;;6.85;4.97;;;;;;;13.30;79.73;101872.53;4969183;28;20462;-70
2022/06/04 05:15:43;;;;;;;6.35;5.30;;;;;;;13.29;80.84;101871.63;4983818;28;20037;-70
2022/06/04 05:18:09;;;;;;;6.32;5.72;;;;;;;13.30;81.23;101867.31;4968877;28;20110;-70
2022/06/04 05:20:34;;;;;;;8.63;5.35;;;;;;;13.32;80.55;101871.75;4969450;28;20047;-70
2022/06/04 05:22:59;;;;;;;6.15;5.57;;;;;;;13.35;80.75;101878.78;4968888;28;20050;-70
2022/06/04 05:25:25;;;;;;;5.65;5.13;;;;;;;13.38;80.92;101897.16;4966788;28;20038;-70
2022/06/04 05:27:50;;;;;;;6.32;5.72;;;;;;;13.42;80.72;101892.94;4966621;28;20398;-70
2022/06/04 05:30:16;;;;;;;8.10;5.22;;;;;;;13.47;80.25;101890.50;4967021;28;20018;-70
2022/06/04 05:32:42;;;;;;;7.55;6.13;;;;;;;13.49;79.79;101889.69;4967165;28;20465;-70
2022/06/04 05:35:07;;;;;;;8.50;6.50;;;;;;;13.51;80.50;101879.38;4967321;28;20043;-70
2022/06/04 05:37:33;;;;;;;7.70;5.90;;;;;;;13.55;81.10;101878.66;4964126;28;20031;-70
2022/06/04 05:39:58;;;;;;;6.65;5.45;;;;;;;13.57;81.30;101884.81;4969138;28;20498;-70
2022/06/04 05:42:23;;;;;;;7.40;6.00;;;;;;;13.60;81.15;101892.72;4966407;28;20034;-70
2022/06/04 05:44:49;;;;;;;6.32;5.38;;;;;;;13.62;81.32;101896.28;4963451;28;20019;-70
2022/06/04 05:47:14;;;;;;;7.97;6.28;;;;;;;13.69;80.05;101905.19;4967839;28;20069;-70
2022/06/04 05:49:39;;;;;;;6.90;5.90;;;;;;;13.71;80.49;101900.06;4968486;28;20027;-70
2022/06/04 05:52:05;;;;;;;9.32;6.53;;;;;;;13.72;80.47;101901.84;4967706;28;20086;-70
2022/06/04 05:54:30;;;;;;;6.32;5.70;;;;;;;13.65;80.01;101901.59;4967801;28;20034;-71
2022/06/04 05:56:56;;;;;;;8.10;6.07;;;;;;;13.65;79.80;101906.81;4967751;28;20483;-70
2022/06/04 05:59:22;;;;;;;8.75;6.10;;;;;;;13.69;80.45;101907.81;4967677;28;20026;-70
2022/06/04 06:01:49;;;;;;;9.10;6.57;;;;;;;13.65;80.07;101913.75;4961897;28;20054;-70
2022/06/04 06:04:16;;;;;;;7.55;6.53;;;;;;;13.64;81.77;101915.47;4961816;28;20189;-70
2022/06/04 06:06:45;;;;;;;7.95;6.50;;;;;;;13.61;80.37;101906.66;4968175;28;20126;-70
2022/06/04 06:09:12;;;;;;;7.32;6.45;;;;;;;13.59;81.27;101917.00;4968298;28;20530;-70
2022/06/04 06:11:39;;;;;;;8.48;6.10;;;;;;;13.64;80.92;101914.56;4957913;28;20023;-70
2022/06/04 06:14:07;;;;;;;10.73;6.65;;;;;;;13.65;80.99;101917.22;4968345;28;20027;-70
2022/06/04 06:16:34;;;;;;;9.90;6.68;;;;;;;13.60;82.12;101916.16;4968532;28;20599;-70
2022/06/04 06:18:59;;;;;;;8.05;6.55;;;;;;;13.65;82.29;101911.16;4966852;28;20033;-70
2022/06/04 06:21:29;;;;;;;7.00;6.30;;;;;;;13.71;80.98;101908.75;4967584;28;20046;-70
2022/06/04 06:23:56;;;;;;;9.30;7.20;;;;;;;13.74;82.07;101915.81;4967690;28;20034;-70
2022/06/04 06:26:25;;;;;;;9.05;7.35;;;;;;;13.79;81.30;101904.72;4967981;28;20031;-70
2022/06/04 06:28:51;;;;;;;7.65;6.78;;;;;;;13.84;81.26;101912.69;4968112;28;20399;-70
2022/06/04 06:31:19;;;;;;;8.98;7.07;;;;;;;13.88;80.50;101913.69;4967964;28;20039;-70
2022/06/04 06:33:45;;;;;;;8.98;7.63;;;;;;;13.92;81.46;101918.19;4967738;28;20070;-70
2022/06/04 06:36:13;;;;;;;8.00;7.03;;;;;;;13.98;81.68;101927.91;4967848;28;20054;-70
2022/06/04 06:38:39;;;;;;;9.85;7.22;;;;;;;14.02;80.87;101930.69;4967160;28;20035;-70
2022/06/04 06:41:06;;;;;;;8.13;6.57;;;;;;;14.12;80.71;101933.63;4968081;28;20057;-70
2022/06/04 06:43:47;;;;;;;7.65;6.57;;;;;;;14.20;80.78;101932.16;4968309;28;20026;-70
2022/06/04 06:46:32;;;;;;;9.07;7.13;;;;;;;14.22;80.13;101927.91;4968144;28;20117;-70
2022/06/04 06:49:08;;;;;;;13.43;8.18;;;;;;;14.32;79.61;101933.44;4967579;28;20027;-70
2022/06/04 06:51:38;;;;;;;11.10;7.20;;;;;;;14.39;78.95;101931.06;4968104;28;20054;-70
2022/06/04 06:54:04;;;;;;;8.77;7.22;;;;;;;14.44;78.51;101930.34;4968360;28;20570;-70
2022/06/04 06:56:33;;;;;;;9.60;7.72;;;;;;;14.45;79.23;101937.31;4968144;28;20025;-70
2022/06/04 06:59:00;;;;;;;12.80;7.60;;;;;;;14.50;78.84;101930.53;4967230;28;20031;-69
2022/06/04 07:01:26;;;;;;;9.70;8.57;;;;;;;14.51;80.52;101932.31;4963839;28;20500;-70
2022/06/04 07:03:53;;;;;;;8.65;7.63;;;;;;;14.50;78.86;101927.91;4958207;28;20057;-69
2022/06/04 07:06:30;;;;;;;8.55;7.75;;;;;;;14.51;77.52;101921.88;4967732;28;20037;-69
2022/06/04 07:08:55;;;;;;;7.82;7.03;;;;;;;14.55;77.98;101930.69;4956939;28;20037;-70
2022/06/04 07:11:20;;;;;;;8.50;7.70;;;;;;;14.57;79.12;101932.50;4968184;28;20019;-70
2022/06/04 07:13:46;;;;;;;9.68;8.68;;;;;;;14.58;79.41;101928.19;4967612;28;20117;-71
2022/06/04 07:16:11;;;;;;;11.15;7.57;;;;;;;14.57;78.22;101929.91;4967134;28;20388;-70
2022/06/04 07:18:36;;;;;;;9.13;8.32;;;;;;;14.56;79.06;101925.53;4967205;28;20035;-70
2022/06/04 07:21:07;;;;;;;9.07;8.18;;;;;;;14.60;79.61;101929.13;4966774;28;20126;-70
2022/06/04 07:23:34;;;;;;;11.75;8.73;;;;;;;14.65;79.45;101933.66;4964555;28;20043;-70
2022/06/04 07:26:01;;;;;;;9.80;8.30;;;;;;;14.69;79.49;101933.75;4967305;28;20027;-69
2022/06/04 07:28:27;;;;;;;11.07;8.82;;;;;;;14.72;79.36;101942.56;4963139;28;20045;-70
2022/06/04 07:30:53;;;;;;;9.18;8.02;;;;;;;14.69;78.23;101941.56;4964358;28;20498;-69
2022/06/04 07:33:19;;;;;;;12.00;8.30;;;;;;;14.71;78.59;101939.91;4966448;28;20106;-70
2022/06/04 07:35:50;;;;;;;10.43;7.63;;;;;;;14.74;78.86;101945.22;4967479;28;20113;-70
2022/06/04 07:38:16;;;;;;;8.65;7.85;;;;;;;14.77;78.45;101950.53;4967060;28;20082;-70
2022/06/04 07:40:42;;;;;;;10.93;7.72;;;;;;;14.80;78.11;101948.03;4963724;28;20030;-70
2022/06/04 07:43:07;;;;;;;9.77;8.05;;;;;;;14.83;78.03;101956.00;4952923;28;20030;-70
2022/06/04 07:45:34;;;;;;;9.35;8.25;;;;;;;14.84;77.58;101954.28;4963948;28;20023;-70
2022/06/04 07:48:00;;;;;;;10.35;8.50;;;;;;;14.86;78.62;101960.41;4969036;28;20041;-70
2022/06/04 07:50:26;;;;;;;8.55;7.75;;;;;;;14.85;79.14;101962.16;4967600;28;20045;-70
2022/06/04 07:52:51;;;;;;;14.07;8.93;;;;;;;14.75;78.07;101965.28;4968033;28;20027;-70
2022/06/04 07:55:17;;;;;;;9.77;8.27;;;;;;;14.80;78.01;101954.97;4968351;28;20027;-70
2022/06/04 07:57:42;;;;;;;8.95;8.10;;;;;;;14.83;78.15;101945.56;4970981;28;20027;-70
2022/06/04 08:00:08;;;;;;;12.52;8.85;;;;;;;14.87;77.36;101946.53;4970133;28;20542;-70
2022/06/04 08:02:34;;;;;;;9.10;7.80;;;;;;;14.89;76.78;101950.94;4940636;29;20042;-70
2022/06/04 08:04:59;;;;;;;8.27;7.57;;;;;;;14.90;78.09;101959.69;4969668;28;20023;-70
2022/06/04 08:07:24;;;;;;;12.40;8.90;;;;;;;14.92;77.37;101955.41;4970449;28;20491;-70
2022/06/04 08:09:50;;;;;;;14.30;8.65;;;;;;;14.88;77.64;101949.19;4968745;28;20019;-70
2022/06/04 08:12:16;;;;;;;9.30;8.40;;;;;;;14.99;77.44;101951.25;4968799;28;20027;-70
2022/06/04 08:14:43;;;;;;;9.38;8.48;;;;;;;15.07;78.04;101955.00;4970029;28;20294;-70
2022/06/04 08:17:08;;;;;;;10.60;8.57;;;;;;;15.15;78.08;101954.34;4970246;28;20077;-70
2022/06/04 08:19:34;;;;;;;10.55;8.60;;;;;;;15.21;78.86;101952.81;4970254;28;20050;-70
2022/06/04 08:21:59;;;;;;;9.82;8.85;;;;;;;15.28;77.27;101938.22;4965191;28;20464;-70
2022/06/04 08:24:25;;;;;;;11.13;8.48;;;;;;;15.34;77.26;101932.28;4970251;28;20027;-70
2022/06/04 08:26:56;;;;;;;9.57;8.63;;;;;;;15.38;76.43;101941.97;4969699;28;20531;-70
2022/06/04 08:29:22;;;;;;;;;;;;;;;15.40;76.56;101940.28;4970951;28;20023;-70
2022/06/04 08:31:47;;;;;;;9.40;8.25;;;;;;;15.46;75.65;101936.97;4970050;28;20286;-70
2022/06/04 08:34:12;;;;;;;8.60;7.72;;;;;;;15.49;76.84;101932.72;4951751;28;20030;-69
2022/06/04 08:36:38;;;;;;;8.48;7.70;;;;;;;15.56;76.08;101927.69;4970265;28;20030;-70
2022/06/04 08:39:04;;;;;;;10.57;8.70;;;;;;;15.59;74.92;101923.44;4969475;28;20027;-70
2022/06/04 08:42:04;;;;;;;12.60;8.80;;;;;;;15.62;74.69;101922.63;4969887;28;20054;-70
2022/06/04 08:44:45;;;;;;;9.43;8.35;;;;;;;15.66;76.11;101928.84;4964173;28;20031;-70
2022/06/04 08:47:13;;;;;;;11.13;9.10;;;;;;;15.64;74.20;101920.97;4969786;28;20034;-70
2022/06/04 08:49:43;;;;;;;10.57;8.30;;;;;;;15.68;74.75;101929.75;4969721;28;20089;-70
2022/06/04 08:52:13;;;;;;;10.55;7.88;;;;;;;15.74;74.71;101942.97;4968720;28;20054;-70
2022/06/04 08:57:33;;;;;;;10.23;8.70;;;;;;;15.69;74.64;101945.47;4969772;28;20046;-70
2022/06/04 09:00:01;;;;;;;9.75;8.68;;;;;;;15.79;74.84;101957.09;4969288;28;20038;-70
2022/06/04 09:02:40;;;;;;;9.50;8.57;;;;;;;15.94;77.02;101966.19;4959528;28;20134;-70
2022/06/04 09:05:27;;;;;;;9.32;8.32;;;;;;;16.10;75.00;101966.66;4966647;28;20471;-70
2022/06/04 09:07:59;;;;;;;10.10;9.20;;;;;;;16.22;75.65;101963.47;4969031;28;20034;-70
2022/06/04 09:10:34;;;;;;;9.75;8.45;;;;;;;16.37;74.67;101953.41;4966882;28;20564;-70
2022/06/04 09:13:09;;;;;;;9.95;9.00;;;;;;;16.38;73.83;101946.44;4968373;28;20482;-70
2022/06/04 09:15:44;;;;;;;12.38;9.73;;;;;;;16.61;75.18;101960.09;4968130;28;20391;-70
2022/06/04 09:18:18;;;;;;;10.90;8.95;;;;;;;16.80;72.25;101958.81;4967948;28;20019;-71
2022/06/04 09:20:47;;;;;;;11.27;8.85;;;;;;;16.90;71.90;101953.78;4962030;28;20063;-70
2022/06/04 09:23:34;;;;;;;9.20;8.30;;;;;;;17.03;71.16;101942.78;4966303;28;20388;-70
2022/06/04 09:26:08;;;;;;;9.00;8.20;;;;;;;17.18;70.41;101938.72;4963680;28;20037;-70
2022/06/04 09:29:01;;;;;;;8.77;7.45;;;;;;;17.61;70.81;101935.28;4968468;28;20062;-70
2022/06/04 09:32:03;;;;;;;9.50;8.38;;;;;;;18.02;68.03;101936.03;4969108;28;20035;-70
2022/06/04 09:34:36;;;;;;;11.85;8.10;;;;;;;18.46;66.62;101949.06;4961877;28;20479;-71
2022/06/04 09:37:04;;;;;;;9.30;8.20;;;;;;;18.74;66.12;101955.63;4967585;28;20031;-71
2022/06/04 09:39:32;;;;;;;9.57;8.77;;;;;;;18.92;64.90;101960.28;4968808;28;20015;-70
2022/06/04 09:42:01;;;;;;;8.80;7.88;;;;;;;19.12;64.96;101950.09;4968852;28;20323;-70
2022/06/04 09:44:28;;;;;;;10.65;8.57;;;;;;;19.29;65.19;101958.19;4968965;28;20533;-70
2022/06/04 09:47:16;;;;;;;9.35;8.32;;;;;;;19.39;64.08;101948.66;4968650;28;20018;-70
2022/06/04 09:49:50;;;;;;;10.50;9.00;;;;;;;19.44;64.26;101952.28;4968628;28;20474;-70
2022/06/04 09:52:36;;;;;;;9.18;8.27;;;;;;;19.61;62.84;101951.56;4967998;28;20109;-70
2022/06/04 09:55:24;;;;;;;9.48;8.65;;;;;;;19.90;62.59;101968.53;4969135;28;20162;-70
2022/06/04 09:58:19;;;;;;;9.65;8.68;;;;;;;20.22;60.54;101951.38;4968751;28;20081;-70
2022/06/04 10:00:56;;;;;;;10.75;8.45;;;;;;;20.45;59.68;101954.22;4968718;28;20466;-70
2022/06/04 10:03:22;;;;;;;8.77;7.88;;;;;;;20.62;61.85;101951.69;4937072;28;20049;-70
2022/06/04 10:06:03;;;;;;;9.57;7.07;;;;;;;20.70;59.54;101958.75;4969309;28;20052;-69
2022/06/04 10:08:29;;;;;;;10.48;8.93;;;;;;;20.70;57.74;101953.50;4968955;28;20436;-70
2022/06/04 10:11:00;;;;;;;8.60;7.72;;;;;;;20.64;58.81;101964.88;4969523;28;20027;-69
2022/06/04 10:13:44;;;;;;;9.45;7.45;;;;;;;20.64;59.24;101964.88;4968837;28;20026;-69
2022/06/04 10:16:17;;;;;;;11.65;8.77;;;;;;;20.42;59.40;101959.41;4968995;28;20117;-70
2022/06/04 10:18:52;;;;;;;10.02;8.40;;;;;;;20.33;61.25;101957.59;4968765;28;20031;-70
2022/06/04 10:21:22;;;;;;;9.57;8.68;;;;;;;20.32;62.08;101960.22;4968328;28;20074;-70
2022/06/04 10:23:50;;;;;;;10.03;9.03;;;;;;;20.27;60.46;101960.19;4966971;28;20134;-70
2022/06/04 10:26:21;;;;;;;9.93;8.30;;;;;;;20.34;62.36;101956.75;4968933;28;20054;-69
2022/06/04 10:29:05;;;;;;;;;;;;;;;20.61;60.77;101963.09;4969124;28;20442;-69
2022/06/04 10:31:44;;;;;;;9.32;8.35;;;;;;;20.84;60.55;101964.13;4968464;28;19970;-70
2022/06/04 10:34:32;;;;;;;11.32;8.32;;;;;;;20.99;59.91;101966.03;4964506;28;20069;-69
2022/06/04 10:37:15;;;;;;;10.63;9.63;;;;;;;21.08;56.18;101966.06;4966363;28;20031;-69
2022/06/04 10:40:05;;;;;;;9.63;8.30;;;;;;;21.32;59.55;101969.69;4968271;28;20488;-69
2022/06/04 10:43:08;;;;;;;11.33;9.67;;;;;;;21.26;56.51;101959.16;4961915;28;20047;-70
2022/06/04 10:45:59;;;;;;;11.23;10.20;;;;;;;21.21;56.65;101964.38;4961489;28;20328;-69
2022/06/04 10:48:43;;;;;;;11.60;10.48;;;;;;;20.92;56.73;101957.16;4960059;28;20047;-69
2022/06/04 10:51:27;;;;;;;12.07;9.93;;;;;;;20.84;59.19;101965.00;4967594;28;20054;-70
2022/06/04 10:54:01;;;;;;;10.32;9.15;;;;;;;20.81;59.53;101969.38;4967933;28;20031;-70
2022/06/04 10:56:51;;;;;;;11.25;9.65;;;;;;;20.94;60.99;101970.34;4967235;28;20034;-69
2022/06/04 10:59:34;;;;;;;10.50;9.32;;;;;;;21.18;59.50;101971.38;4967991;28;20414;-68
2022/06/04 11:02:21;;;;;;;10.40;9.30;;;;;;;21.38;56.57;101967.97;4955800;28;20162;-68
2022/06/04 11:04:53;;;;;;;10.70;9.73;;;;;;;21.51;57.31;101969.78;4951857;28;20022;-68
2022/06/04 11:07:29;;;;;;;10.85;9.05;;;;;;;21.82;58.81;101964.63;4958254;28;20465;-68
2022/06/04 11:09:55;;;;;;;8.88;7.93;;;;;;;22.16;58.51;101961.16;4965351;28;20031;-68
2022/06/04 11:12:33;;;;;;;10.45;9.10;;;;;;;22.45;56.68;101972.63;4967605;28;20066;-68
2022/06/04 11:15:08;;;;;;;9.38;8.00;;;;;;;22.62;56.60;101969.09;4970224;28;20047;-68
2022/06/04 11:17:44;;;;;;;10.93;8.45;;;;;;;22.79;57.07;101970.00;4971486;28;20069;-68
2022/06/04 11:20:17;;;;;;;8.95;8.10;;;;;;;22.76;54.69;101975.28;4971123;28;20046;-68
2022/06/04 11:22:56;;;;;;;9.05;8.15;;;;;;;22.91;56.62;101968.22;4971111;28;20031;-69
2022/06/04 11:25:29;;;;;;;10.32;9.32;;;;;;;22.86;52.84;101975.28;4965416;28;20018;-69
2022/06/04 11:27:59;;;;;;;9.45;8.55;;;;;;;22.87;55.02;101977.03;4965482;28;20039;-69
2022/06/04 11:30:50;;;;;;;10.53;9.50;;;;;;;22.78;54.00;101972.66;4971613;28;20041;-69
2022/06/04 11:33:15;;;;;;;10.35;9.35;;;;;;;22.62;53.68;101974.38;4969883;28;20029;-69
2022/06/04 11:35:58;;;;;;;8.60;7.63;;;;;;;22.64;56.04;101977.94;4963935;28;20035;-69
2022/06/04 11:38:50;;;;;;;11.32;9.90;;;;;;;22.45;53.02;101972.63;4963963;28;20026;-69
2022/06/04 11:41:41;;;;;;;9.52;8.65;;;;;;;22.39;54.13;101970.88;4966404;28;20085;-69
2022/06/04 11:44:28;;;;;;;8.35;7.25;;;;;;;22.45;55.22;101959.41;4970830;28;20054;-69
2022/06/04 11:47:08;;;;;;;10.75;9.68;;;;;;;22.58;54.21;101964.72;4970525;28;20027;-69
2022/06/04 11:50:32;;;;;;;9.32;8.63;;;;;;;22.76;54.81;101940.94;4961203;28;20085;-69
2022/06/04 11:53:38;;;;;;;10.25;9.02;;;;;;;22.91;53.33;101939.16;4911086;29;20714;-71
2022/06/04 11:56:13;;;;;;;9.50;8.57;;;;;;;22.92;52.51;101943.53;4909697;29;20028;-71